sensor_id;sensor_type;location;lat;lon;timestamp;pressure;altitude;pressure_sealevel;temperature;humidity
60817;BME280;51921;51.518;-3.188;2024-03-17T00:02:09;101167.48;;;9.56;100.00
60817;BME280;51921;51.518;-3.188;2024-03-17T00:04:34;101165.90;;;9.43;100.00
60817;BME280;51921;51.518;-3.188;2024-03-17T00:07:00;101161.90;;;9.27;100.00
60817;BME280;51921;51.518;-3.188;2024-03-17T00:09:25;101160.54;;;8.12;100.00
60817;BME280;51921;51.518;-3.188;2024-03-17T00:11:51;101153.41;;;9.09;100.00
60817;BME280;51921;51.518;-3.188;2024-03-17T00:14:16;101153.28;;;8.96;100.00
60817;BME280;51921;51.518;-3.188;2024-03-17T00:16:42;101151.18;;;9.17;100.00
60817;BME280;51921;51.518;-3.188;2024-03-17T00:19:07;101154.80;;;8.83;100.00
60817;BME280;51921;51.518;-3.188;2024-03-17T00:21:32;101153.25;;;8.93;100.00
60817;BME280;51921;51.518;-3.188;2024-03-17T00:23:58;101148.31;;;8.54;100.00
60817;BME280;51921;51.518;-3.188;2024-03-17T00:26:24;101148.64;;;8.54;100.00
60817;BME280;51921;51.518;-3.188;2024-03-17T00:28:49;101141.35;;;8.76;100.00
60817;BME280;51921;51.518;-3.188;2024-03-17T00:31:14;101147.63;;;7.77;100.00
60817;BME280;51921;51.518;-3.188;2024-03-17T00:33:40;101145.48;;;7.79;100.00
60817;BME280;51921;51.518;-3.188;2024-03-17T00:36:06;101142.35;;;8.37;100.00
60817;BME280;51921;51.518;-3.188;2024-03-17T00:38:31;101141.34;;;8.95;100.00
60817;BME280;51921;51.518;-3.188;2024-03-17T00:40:56;101144.78;;;8.17;100.00
60817;BME280;51921;51.518;-3.188;2024-03-17T00:43:22;101136.92;;;9.03;100.00
60817;BME280;51921;51.518;-3.188;2024-03-17T00:45:51;101132.83;;;8.70;100.00
60817;BME280;51921;51.518;-3.188;2024-03-17T00:48:13;101128.93;;;8.75;100.00
60817;BME280;51921;51.518;-3.188;2024-03-17T00:50:38;101129.70;;;9.57;100.00
60817;BME280;51921;51.518;-3.188;2024-03-17T00:53:04;101127.62;;;8.41;100.00
60817;BME280;51921;51.518;-3.188;2024-03-17T00:55:29;101130.68;;;9.31;100.00
60817;BME280;51921;51.518;-3.188;2024-03-17T00:57:54;101128.17;;;9.04;100.00
60817;BME280;51921;51.518;-3.188;2024-03-17T01:00:20;101129.44;;;9.61;100.00
60817;BME280;51921;51.518;-3.188;2024-03-17T01:02:45;101132.29;;;8.76;100.00
60817;BME280;51921;51.518;-3.188;2024-03-17T01:05:11;101128.13;;;8.91;100.00
60817;BME280;51921;51.518;-3.188;2024-03-17T01:07:36;101127.94;;;9.69;100.00
60817;BME280;51921;51.518;-3.188;2024-03-17T01:10:02;101121.17;;;8.68;100.00
60817;BME280;51921;51.518;-3.188;2024-03-17T01:12:27;101123.98;;;8.70;100.00
60817;BME280;51921;51.518;-3.188;2024-03-17T01:14:52;101122.00;;;9.50;100.00
60817;BME280;51921;51.518;-3.188;2024-03-17T01:17:18;101117.33;;;10.30;100.00
60817;BME280;51921;51.518;-3.188;2024-03-17T01:19:43;101112.78;;;9.31;100.00
60817;BME280;51921;51.518;-3.188;2024-03-17T01:22:08;101108.05;;;9.49;100.00
60817;BME280;51921;51.518;-3.188;2024-03-17T01:24:34;101106.15;;;8.84;100.00
60817;BME280;51921;51.518;-3.188;2024-03-17T01:26:59;101103.81;;;9.11;100.00
60817;BME280;51921;51.518;-3.188;2024-03-17T01:29:25;101100.77;;;9.27;100.00
60817;BME280;51921;51.518;-3.188;2024-03-17T01:31:50;101095.31;;;9.36;100.00
60817;BME280;51921;51.518;-3.188;2024-03-17T01:34:15;101099.28;;;9.39;100.00
60817;BME280;51921;51.518;-3.188;2024-03-17T01:36:41;101090.29;;;9.11;100.00
60817;BME280;51921;51.518;-3.188;2024-03-17T01:39:06;101086.44;;;7.93;100.00
60817;BME280;51921;51.518;-3.188;2024-03-17T01:41:32;101081.16;;;8.94;100.00
60817;BME280;51921;51.518;-3.188;2024-03-17T01:43:57;101080.50;;;8.63;100.00
60817;BME280;51921;51.518;-3.188;2024-03-17T01:46:23;101076.88;;;8.90;100.00
60817;BME280;51921;51.518;-3.188;2024-03-17T01:48:48;101075.30;;;8.92;100.00
60817;BME280;51921;51.518;-3.188;2024-03-17T01:51:15;101076.79;;;8.68;100.00
60817;BME280;51921;51.518;-3.188;2024-03-17T01:53:39;101070.61;;;9.44;100.00
60817;BME280;51921;51.518;-3.188;2024-03-17T01:56:05;101065.66;;;9.51;100.00
60817;BME280;51921;51.518;-3.188;2024-03-17T01:58:30;101068.06;;;9.06;100.00
60817;BME280;51921;51.518;-3.188;2024-03-17T02:00:56;101063.42;;;9.19;100.00
60817;BME280;51921;51.518;-3.188;2024-03-17T02:03:21;101059.40;;;8.13;100.00
60817;BME280;51921;51.518;-3.188;2024-03-17T02:05:47;101052.58;;;7.76;100.00
60817;BME280;51921;51.518;-3.188;2024-03-17T02:08:12;101047.63;;;8.79;100.00
60817;BME280;51921;51.518;-3.188;2024-03-17T02:10:38;101048.23;;;8.73;100.00
60817;BME280;51921;51.518;-3.188;2024-03-17T02:13:04;101044.34;;;9.37;100.00
60817;BME280;51921;51.518;-3.188;2024-03-17T02:15:28;101042.18;;;9.22;100.00
60817;BME280;51921;51.518;-3.188;2024-03-17T02:17:54;101037.12;;;9.13;100.00
60817;BME280;51921;51.518;-3.188;2024-03-17T02:20:19;101031.52;;;8.91;100.00
60817;BME280;51921;51.518;-3.188;2024-03-17T02:22:45;101032.87;;;8.87;100.00
60817;BME280;51921;51.518;-3.188;2024-03-17T02:25:10;101030.40;;;10.19;100.00
60817;BME280;51921;51.518;-3.188;2024-03-17T02:27:36;101026.40;;;9.97;100.00
60817;BME280;51921;51.518;-3.188;2024-03-17T02:30:01;101022.27;;;9.57;100.00
60817;BME280;51921;51.518;-3.188;2024-03-17T02:32:26;101020.35;;;9.29;100.00
60817;BME280;51921;51.518;-3.188;2024-03-17T02:34:51;101014.33;;;9.04;100.00
60817;BME280;51921;51.518;-3.188;2024-03-17T02:37:17;101016.13;;;8.44;100.00
60817;BME280;51921;51.518;-3.188;2024-03-17T02:39:43;101013.60;;;8.72;100.00
60817;BME280;51921;51.518;-3.188;2024-03-17T02:42:09;101012.48;;;8.90;100.00
60817;BME280;51921;51.518;-3.188;2024-03-17T02:44:35;101009.90;;;8.25;100.00
60817;BME280;51921;51.518;-3.188;2024-03-17T02:46:59;101003.41;;;8.74;100.00
60817;BME280;51921;51.518;-3.188;2024-03-17T02:49:24;101005.35;;;7.45;100.00
60817;BME280;51921;51.518;-3.188;2024-03-17T02:51:50;101007.75;;;6.73;100.00
60817;BME280;51921;51.518;-3.188;2024-03-17T02:54:15;101004.67;;;6.91;100.00
60817;BME280;51921;51.518;-3.188;2024-03-17T02:56:41;100995.23;;;8.55;100.00
60817;BME280;51921;51.518;-3.188;2024-03-17T02:59:06;100989.43;;;7.94;100.00
60817;BME280;51921;51.518;-3.188;2024-03-17T03:01:31;100990.74;;;8.12;100.00
60817;BME280;51921;51.518;-3.188;2024-03-17T03:03:57;100984.30;;;8.27;100.00
60817;BME280;51921;51.518;-3.188;2024-03-17T03:06:22;100976.92;;;8.04;100.00
60817;BME280;51921;51.518;-3.188;2024-03-17T03:08:48;100974.84;;;8.24;100.00
60817;BME280;51921;51.518;-3.188;2024-03-17T03:11:14;100969.93;;;7.91;100.00
60817;BME280;51921;51.518;-3.188;2024-03-17T03:13:39;100970.31;;;8.06;100.00
60817;BME280;51921;51.518;-3.188;2024-03-17T03:16:05;100965.51;;;7.86;100.00
60817;BME280;51921;51.518;-3.188;2024-03-17T03:18:29;100966.52;;;8.71;100.00
60817;BME280;51921;51.518;-3.188;2024-03-17T03:20:55;100966.71;;;8.30;100.00
60817;BME280;51921;51.518;-3.188;2024-03-17T03:23:20;100962.81;;;8.95;100.00
60817;BME280;51921;51.518;-3.188;2024-03-17T03:25:46;100963.14;;;8.30;100.00
60817;BME280;51921;51.518;-3.188;2024-03-17T03:28:11;100956.78;;;9.31;100.00
60817;BME280;51921;51.518;-3.188;2024-03-17T03:30:36;100958.93;;;8.05;100.00
60817;BME280;51921;51.518;-3.188;2024-03-17T03:33:02;100959.42;;;8.50;100.00
60817;BME280;51921;51.518;-3.188;2024-03-17T03:35:28;100951.86;;;8.58;100.00
60817;BME280;51921;51.518;-3.188;2024-03-17T03:37:52;100949.67;;;8.82;100.00
60817;BME280;51921;51.518;-3.188;2024-03-17T03:40:18;100950.35;;;8.91;100.00
60817;BME280;51921;51.518;-3.188;2024-03-17T03:42:43;100950.55;;;8.11;100.00
60817;BME280;51921;51.518;-3.188;2024-03-17T03:45:09;100948.13;;;8.30;100.00
60817;BME280;51921;51.518;-3.188;2024-03-17T03:47:34;100945.72;;;8.44;100.00
60817;BME280;51921;51.518;-3.188;2024-03-17T03:49:59;100942.59;;;8.60;100.00
60817;BME280;51921;51.518;-3.188;2024-03-17T03:52:25;100939.68;;;9.04;100.00
60817;BME280;51921;51.518;-3.188;2024-03-17T03:54:51;100942.19;;;8.15;100.00
60817;BME280;51921;51.518;-3.188;2024-03-17T03:57:16;100940.53;;;8.41;100.00
60817;BME280;51921;51.518;-3.188;2024-03-17T03:59:41;100936.31;;;8.77;100.00
60817;BME280;51921;51.518;-3.188;2024-03-17T04:02:06;100934.39;;;8.42;100.00
60817;BME280;51921;51.518;-3.188;2024-03-17T04:04:32;100931.34;;;8.56;100.00
60817;BME280;51921;51.518;-3.188;2024-03-17T04:06:58;100931.23;;;8.67;100.00
60817;BME280;51921;51.518;-3.188;2024-03-17T04:09:23;100930.03;;;8.70;100.00
60817;BME280;51921;51.518;-3.188;2024-03-17T04:11:48;100931.26;;;9.26;100.00
60817;BME280;51921;51.518;-3.188;2024-03-17T04:14:14;100928.27;;;8.77;100.00
60817;BME280;51921;51.518;-3.188;2024-03-17T04:16:39;100929.03;;;9.46;100.00
60817;BME280;51921;51.518;-3.188;2024-03-17T04:19:04;100927.90;;;9.21;100.00
60817;BME280;51921;51.518;-3.188;2024-03-17T04:21:30;100927.77;;;8.86;100.00
60817;BME280;51921;51.518;-3.188;2024-03-17T04:23:55;100930.27;;;8.08;100.00
60817;BME280;51921;51.518;-3.188;2024-03-17T04:26:20;100927.89;;;7.84;100.00
60817;BME280;51921;51.518;-3.188;2024-03-17T04:28:46;100929.43;;;8.48;100.00
60817;BME280;51921;51.518;-3.188;2024-03-17T04:31:11;100926.65;;;8.74;100.00
60817;BME280;51921;51.518;-3.188;2024-03-17T04:33:37;100923.28;;;9.07;100.00
60817;BME280;51921;51.518;-3.188;2024-03-17T04:36:02;100920.37;;;8.93;100.00
60817;BME280;51921;51.518;-3.188;2024-03-17T04:38:27;100918.44;;;8.52;100.00
60817;BME280;51921;51.518;-3.188;2024-03-17T04:40:53;100916.52;;;9.06;100.00
60817;BME280;51921;51.518;-3.188;2024-03-17T04:43:18;100919.02;;;9.03;100.00
60817;BME280;51921;51.518;-3.188;2024-03-17T04:45:44;100915.68;;;9.55;100.00
60817;BME280;51921;51.518;-3.188;2024-03-17T04:48:09;100914.24;;;8.46;100.00
60817;BME280;51921;51.518;-3.188;2024-03-17T04:50:35;100912.65;;;9.19;100.00
60817;BME280;51921;51.518;-3.188;2024-03-17T04:53:00;100911.00;;;9.42;100.00
60817;BME280;51921;51.518;-3.188;2024-03-17T04:55:26;100909.36;;;9.24;100.00
60817;BME280;51921;51.518;-3.188;2024-03-17T04:57:51;100905.86;;;9.21;100.00
60817;BME280;51921;51.518;-3.188;2024-03-17T05:00:17;100904.28;;;8.86;100.00
60817;BME280;51921;51.518;-3.188;2024-03-17T05:02:42;100901.69;;;9.43;100.00
60817;BME280;51921;51.518;-3.188;2024-03-17T05:05:08;100896.42;;;9.13;100.00
60817;BME280;51921;51.518;-3.188;2024-03-17T05:07:33;100896.59;;;8.87;100.00
60817;BME280;51921;51.518;-3.188;2024-03-17T05:09:58;100891.00;;;8.82;100.00
60817;BME280;51921;51.518;-3.188;2024-03-17T05:12:24;100894.34;;;7.48;100.00
60817;BME280;51921;51.518;-3.188;2024-03-17T05:14:49;100895.09;;;9.30;100.00
60817;BME280;51921;51.518;-3.188;2024-03-17T05:17:15;100899.10;;;8.35;100.00
60817;BME280;51921;51.518;-3.188;2024-03-17T05:19:40;100897.35;;;8.97;100.00
60817;BME280;51921;51.518;-3.188;2024-03-17T05:22:06;100894.22;;;8.47;100.00
60817;BME280;51921;51.518;-3.188;2024-03-17T05:24:31;100897.33;;;9.79;100.00
60817;BME280;51921;51.518;-3.188;2024-03-17T05:26:57;100893.67;;;8.25;100.00
60817;BME280;51921;51.518;-3.188;2024-03-17T05:29:22;100896.00;;;8.75;100.00
60817;BME280;51921;51.518;-3.188;2024-03-17T05:31:48;100899.07;;;8.33;100.00
60817;BME280;51921;51.518;-3.188;2024-03-17T05:34:13;100901.43;;;8.78;100.00
60817;BME280;51921;51.518;-3.188;2024-03-17T05:36:39;100900.62;;;9.54;100.00
60817;BME280;51921;51.518;-3.188;2024-03-17T05:39:04;100899.63;;;9.77;100.00
60817;BME280;51921;51.518;-3.188;2024-03-17T05:41:30;100898.54;;;9.32;100.00
60817;BME280;51921;51.518;-3.188;2024-03-17T05:43:55;100893.13;;;9.60;100.00
60817;BME280;51921;51.518;-3.188;2024-03-17T05:46:20;100900.78;;;8.90;100.00
60817;BME280;51921;51.518;-3.188;2024-03-17T05:48:46;100905.16;;;8.90;100.00
60817;BME280;51921;51.518;-3.188;2024-03-17T05:51:12;100906.55;;;9.79;100.00
60817;BME280;51921;51.518;-3.188;2024-03-17T05:53:38;100909.44;;;9.34;100.00
60817;BME280;51921;51.518;-3.188;2024-03-17T05:56:03;100908.32;;;8.60;100.00
60817;BME280;51921;51.518;-3.188;2024-03-17T05:58:28;100907.83;;;10.05;100.00
60817;BME280;51921;51.518;-3.188;2024-03-17T06:00:53;100911.31;;;9.32;100.00
60817;BME280;51921;51.518;-3.188;2024-03-17T06:03:18;100914.25;;;9.90;100.00
60817;BME280;51921;51.518;-3.188;2024-03-17T06:05:44;100917.57;;;9.63;100.00
60817;BME280;51921;51.518;-3.188;2024-03-17T06:08:09;100922.13;;;10.33;100.00
60817;BME280;51921;51.518;-3.188;2024-03-17T06:10:36;100921.96;;;9.95;100.00
60817;BME280;51921;51.518;-3.188;2024-03-17T06:13:00;100926.34;;;9.44;100.00
60817;BME280;51921;51.518;-3.188;2024-03-17T06:15:27;100925.59;;;10.70;100.00
60817;BME280;51921;51.518;-3.188;2024-03-17T06:17:51;100925.85;;;10.51;100.00
60817;BME280;51921;51.518;-3.188;2024-03-17T06:20:16;100926.51;;;10.29;100.00
60817;BME280;51921;51.518;-3.188;2024-03-17T06:22:42;100926.98;;;10.60;100.00
60817;BME280;51921;51.518;-3.188;2024-03-17T06:25:08;100929.31;;;10.84;100.00
60817;BME280;51921;51.518;-3.188;2024-03-17T06:27:32;100930.65;;;10.51;100.00
60817;BME280;51921;51.518;-3.188;2024-03-17T06:29:58;100927.52;;;10.63;100.00
60817;BME280;51921;51.518;-3.188;2024-03-17T06:32:23;100929.90;;;10.30;100.00
60817;BME280;51921;51.518;-3.188;2024-03-17T06:34:49;100926.53;;;10.07;100.00
60817;BME280;51921;51.518;-3.188;2024-03-17T06:37:14;100924.30;;;10.63;100.00
60817;BME280;51921;51.518;-3.188;2024-03-17T06:39:40;100923.96;;;10.45;100.00
60817;BME280;51921;51.518;-3.188;2024-03-17T06:42:06;100918.47;;;9.85;100.00
60817;BME280;51921;51.518;-3.188;2024-03-17T06:44:30;100909.86;;;9.52;100.00
60817;BME280;51921;51.518;-3.188;2024-03-17T06:46:56;100903.62;;;10.56;100.00
60817;BME280;51921;51.518;-3.188;2024-03-17T06:49:21;100896.28;;;10.38;100.00
60817;BME280;51921;51.518;-3.188;2024-03-17T06:51:47;100892.16;;;8.10;100.00
60817;BME280;51921;51.518;-3.188;2024-03-17T06:54:12;100903.41;;;10.18;100.00
60817;BME280;51921;51.518;-3.188;2024-03-17T06:56:38;100906.34;;;10.68;100.00
60817;BME280;51921;51.518;-3.188;2024-03-17T06:59:03;100909.11;;;10.27;100.00
60817;BME280;51921;51.518;-3.188;2024-03-17T07:01:28;100908.40;;;10.58;100.00
60817;BME280;51921;51.518;-3.188;2024-03-17T07:03:54;100908.99;;;10.82;100.00
60817;BME280;51921;51.518;-3.188;2024-03-17T07:06:19;100913.80;;;10.74;100.00
60817;BME280;51921;51.518;-3.188;2024-03-17T07:08:44;100914.63;;;9.82;100.00
60817;BME280;51921;51.518;-3.188;2024-03-17T07:11:10;100918.85;;;10.69;100.00
60817;BME280;51921;51.518;-3.188;2024-03-17T07:13:36;100915.81;;;10.22;100.00
60817;BME280;51921;51.518;-3.188;2024-03-17T07:16:01;100912.17;;;9.19;100.00
60817;BME280;51921;51.518;-3.188;2024-03-17T07:18:27;100914.31;;;11.11;100.00
60817;BME280;51921;51.518;-3.188;2024-03-17T07:20:51;100910.99;;;10.08;100.00
60817;BME280;51921;51.518;-3.188;2024-03-17T07:23:17;100904.14;;;8.64;100.00
60817;BME280;51921;51.518;-3.188;2024-03-17T07:25:42;100909.12;;;10.15;100.00
60817;BME280;51921;51.518;-3.188;2024-03-17T07:28:08;100909.67;;;8.33;100.00
60817;BME280;51921;51.518;-3.188;2024-03-17T07:30:33;100916.89;;;9.87;100.00
60817;BME280;51921;51.518;-3.188;2024-03-17T07:32:58;100918.52;;;9.81;100.00
60817;BME280;51921;51.518;-3.188;2024-03-17T07:35:23;100924.55;;;10.65;100.00
60817;BME280;51921;51.518;-3.188;2024-03-17T07:37:49;100922.59;;;10.33;100.00
60817;BME280;51921;51.518;-3.188;2024-03-17T07:40:14;100921.40;;;10.64;100.00
60817;BME280;51921;51.518;-3.188;2024-03-17T07:42:40;100918.24;;;10.73;100.00
60817;BME280;51921;51.518;-3.188;2024-03-17T07:45:06;100911.75;;;11.58;100.00
60817;BME280;51921;51.518;-3.188;2024-03-17T07:47:31;100914.49;;;9.91;100.00
60817;BME280;51921;51.518;-3.188;2024-03-17T07:49:56;100916.17;;;10.49;100.00
60817;BME280;51921;51.518;-3.188;2024-03-17T07:52:21;100910.08;;;10.67;100.00
60817;BME280;51921;51.518;-3.188;2024-03-17T07:54:47;100911.33;;;10.53;100.00
60817;BME280;51921;51.518;-3.188;2024-03-17T07:57:12;100913.44;;;10.66;100.00
60817;BME280;51921;51.518;-3.188;2024-03-17T07:59:37;100910.82;;;11.18;100.00
60817;BME280;51921;51.518;-3.188;2024-03-17T08:02:03;100910.83;;;10.11;100.00
60817;BME280;51921;51.518;-3.188;2024-03-17T08:04:28;100908.69;;;9.27;100.00
60817;BME280;51921;51.518;-3.188;2024-03-17T08:06:54;100904.59;;;10.40;100.00
60817;BME280;51921;51.518;-3.188;2024-03-17T08:09:19;100905.78;;;10.31;100.00
60817;BME280;51921;51.518;-3.188;2024-03-17T08:11:45;100901.72;;;10.77;100.00
60817;BME280;51921;51.518;-3.188;2024-03-17T08:14:10;100905.74;;;11.60;100.00
60817;BME280;51921;51.518;-3.188;2024-03-17T08:16:35;100906.34;;;11.10;100.00
60817;BME280;51921;51.518;-3.188;2024-03-17T08:19:01;100905.88;;;11.77;100.00
60817;BME280;51921;51.518;-3.188;2024-03-17T08:21:26;100903.60;;;11.72;100.00
60817;BME280;51921;51.518;-3.188;2024-03-17T08:23:52;100906.28;;;10.67;100.00
60817;BME280;51921;51.518;-3.188;2024-03-17T08:26:17;100906.68;;;10.85;100.00
60817;BME280;51921;51.518;-3.188;2024-03-17T08:28:42;100902.85;;;12.26;100.00
60817;BME280;51921;51.518;-3.188;2024-03-17T08:31:08;100897.36;;;11.83;100.00
60817;BME280;51921;51.518;-3.188;2024-03-17T08:33:33;100901.08;;;11.14;100.00
60817;BME280;51921;51.518;-3.188;2024-03-17T08:36:00;100898.96;;;11.85;100.00
60817;BME280;51921;51.518;-3.188;2024-03-17T08:38:25;100896.44;;;12.21;100.00
60817;BME280;51921;51.518;-3.188;2024-03-17T08:40:50;100899.26;;;11.03;100.00
60817;BME280;51921;51.518;-3.188;2024-03-17T08:43:15;100899.00;;;11.29;100.00
60817;BME280;51921;51.518;-3.188;2024-03-17T08:45:40;100901.92;;;11.26;100.00
60817;BME280;51921;51.518;-3.188;2024-03-17T08:48:06;100904.14;;;12.03;100.00
60817;BME280;51921;51.518;-3.188;2024-03-17T08:50:31;100898.28;;;11.36;100.00
60817;BME280;51921;51.518;-3.188;2024-03-17T08:52:56;100901.41;;;11.97;100.00
60817;BME280;51921;51.518;-3.188;2024-03-17T08:55:22;100904.73;;;11.37;100.00
60817;BME280;51921;51.518;-3.188;2024-03-17T08:57:47;100910.30;;;10.53;100.00
60817;BME280;51921;51.518;-3.188;2024-03-17T09:00:14;100909.20;;;10.65;100.00
60817;BME280;51921;51.518;-3.188;2024-03-17T09:02:38;100904.86;;;12.11;100.00
60817;BME280;51921;51.518;-3.188;2024-03-17T09:05:04;100907.51;;;10.93;100.00
60817;BME280;51921;51.518;-3.188;2024-03-17T09:07:29;100907.13;;;10.88;100.00
60817;BME280;51921;51.518;-3.188;2024-03-17T09:09:54;100906.81;;;11.37;100.00
60817;BME280;51921;51.518;-3.188;2024-03-17T09:12:20;100914.02;;;10.41;100.00
60817;BME280;51921;51.518;-3.188;2024-03-17T09:14:47;100915.08;;;11.28;100.00
60817;BME280;51921;51.518;-3.188;2024-03-17T09:17:11;100915.81;;;11.08;100.00
60817;BME280;51921;51.518;-3.188;2024-03-17T09:19:36;100913.00;;;11.57;100.00
60817;BME280;51921;51.518;-3.188;2024-03-17T09:22:01;100914.93;;;11.39;100.00
60817;BME280;51921;51.518;-3.188;2024-03-17T09:24:27;100916.10;;;11.03;100.00
60817;BME280;51921;51.518;-3.188;2024-03-17T09:26:52;100918.11;;;11.35;100.00
60817;BME280;51921;51.518;-3.188;2024-03-17T09:29:17;100916.09;;;10.91;100.00
60817;BME280;51921;51.518;-3.188;2024-03-17T09:31:43;100918.63;;;11.03;100.00
60817;BME280;51921;51.518;-3.188;2024-03-17T09:34:08;100920.66;;;11.49;100.00
60817;BME280;51921;51.518;-3.188;2024-03-17T09:36:34;100922.33;;;11.12;100.00
60817;BME280;51921;51.518;-3.188;2024-03-17T09:38:59;100925.09;;;11.08;100.00
60817;BME280;51921;51.518;-3.188;2024-03-17T09:41:25;100924.27;;;10.76;100.00
60817;BME280;51921;51.518;-3.188;2024-03-17T09:43:51;100929.21;;;11.09;100.00
60817;BME280;51921;51.518;-3.188;2024-03-17T09:46:15;100933.15;;;10.80;100.00
60817;BME280;51921;51.518;-3.188;2024-03-17T09:48:41;100928.77;;;10.58;100.00
60817;BME280;51921;51.518;-3.188;2024-03-17T09:51:06;100934.40;;;11.23;100.00
60817;BME280;51921;51.518;-3.188;2024-03-17T09:53:32;100936.47;;;10.71;100.00
60817;BME280;51921;51.518;-3.188;2024-03-17T09:55:58;100937.02;;;11.06;100.00
60817;BME280;51921;51.518;-3.188;2024-03-17T09:58:22;100937.95;;;11.71;100.00
60817;BME280;51921;51.518;-3.188;2024-03-17T10:00:47;100938.40;;;11.62;100.00
60817;BME280;51921;51.518;-3.188;2024-03-17T10:05:38;100937.05;;;10.44;100.00
60817;BME280;51921;51.518;-3.188;2024-03-17T10:08:04;100935.79;;;10.38;100.00
60817;BME280;51921;51.518;-3.188;2024-03-17T10:10:29;100937.06;;;9.95;100.00
60817;BME280;51921;51.518;-3.188;2024-03-17T10:12:54;100942.12;;;9.79;100.00
60817;BME280;51921;51.518;-3.188;2024-03-17T10:15:20;100947.38;;;10.84;100.00
60817;BME280;51921;51.518;-3.188;2024-03-17T10:17:45;100948.06;;;10.23;100.00
60817;BME280;51921;51.518;-3.188;2024-03-17T10:20:12;100949.99;;;10.66;100.00
60817;BME280;51921;51.518;-3.188;2024-03-17T10:22:36;100956.28;;;10.11;100.00
60817;BME280;51921;51.518;-3.188;2024-03-17T10:25:01;100949.56;;;10.10;100.00
60817;BME280;51921;51.518;-3.188;2024-03-17T10:27:27;100946.93;;;10.29;100.00
60817;BME280;51921;51.518;-3.188;2024-03-17T10:29:52;100950.10;;;9.92;100.00
60817;BME280;51921;51.518;-3.188;2024-03-17T10:32:19;100951.69;;;10.60;100.00
60817;BME280;51921;51.518;-3.188;2024-03-17T10:34:43;100950.97;;;11.43;100.00
60817;BME280;51921;51.518;-3.188;2024-03-17T10:37:10;100949.72;;;10.79;100.00
60817;BME280;51921;51.518;-3.188;2024-03-17T10:39:34;100945.92;;;10.91;100.00
60817;BME280;51921;51.518;-3.188;2024-03-17T10:42:01;100949.47;;;11.43;100.00
60817;BME280;51921;51.518;-3.188;2024-03-17T10:44:25;100953.27;;;11.04;100.00
60817;BME280;51921;51.518;-3.188;2024-03-17T10:46:51;100950.35;;;11.09;100.00
60817;BME280;51921;51.518;-3.188;2024-03-17T10:49:16;100948.15;;;11.31;100.00
60817;BME280;51921;51.518;-3.188;2024-03-17T10:51:43;100946.58;;;11.42;100.00
60817;BME280;51921;51.518;-3.188;2024-03-17T10:54:06;100944.10;;;11.93;100.00
60817;BME280;51921;51.518;-3.188;2024-03-17T10:56:32;100943.06;;;11.93;100.00
60817;BME280;51921;51.518;-3.188;2024-03-17T10:58:58;100941.95;;;11.13;100.00
60817;BME280;51921;51.518;-3.188;2024-03-17T11:01:22;100944.70;;;11.27;100.00
60817;BME280;51921;51.518;-3.188;2024-03-17T11:03:48;100950.81;;;11.59;100.00
60817;BME280;51921;51.518;-3.188;2024-03-17T11:06:13;100946.08;;;10.70;100.00
60817;BME280;51921;51.518;-3.188;2024-03-17T11:08:40;100945.10;;;10.89;100.00
60817;BME280;51921;51.518;-3.188;2024-03-17T11:11:04;100941.22;;;10.71;100.00
60817;BME280;51921;51.518;-3.188;2024-03-17T11:13:30;100940.15;;;10.28;100.00
60817;BME280;51921;51.518;-3.188;2024-03-17T11:15:56;100941.94;;;10.92;100.00
60817;BME280;51921;51.518;-3.188;2024-03-17T11:18:33;100946.93;;;10.97;100.00
60817;BME280;51921;51.518;-3.188;2024-03-17T11:20:55;100949.51;;;11.47;100.00
60817;BME280;51921;51.518;-3.188;2024-03-17T11:25:38;100945.91;;;11.50;100.00
60817;BME280;51921;51.518;-3.188;2024-03-17T11:28:03;100942.94;;;10.75;100.00
60817;BME280;51921;51.518;-3.188;2024-03-17T11:30:41;100941.99;;;11.02;100.00
60817;BME280;51921;51.518;-3.188;2024-03-17T11:32:53;100945.74;;;10.48;100.00
60817;BME280;51921;51.518;-3.188;2024-03-17T11:35:23;100943.82;;;11.49;100.00
60817;BME280;51921;51.518;-3.188;2024-03-17T11:37:44;100938.73;;;10.80;100.00
60817;BME280;51921;51.518;-3.188;2024-03-17T11:42:34;100944.69;;;11.38;100.00
60817;BME280;51921;51.518;-3.188;2024-03-17T11:45:02;100935.00;;;10.77;100.00
60817;BME280;51921;51.518;-3.188;2024-03-17T11:47:33;100940.31;;;10.94;100.00
60817;BME280;51921;51.518;-3.188;2024-03-17T11:49:51;100940.40;;;11.27;100.00
60817;BME280;51921;51.518;-3.188;2024-03-17T11:52:16;100932.52;;;10.48;100.00
60817;BME280;51921;51.518;-3.188;2024-03-17T11:54:42;100936.65;;;10.99;100.00
60817;BME280;51921;51.518;-3.188;2024-03-17T11:57:08;100930.13;;;10.76;100.00
60817;BME280;51921;51.518;-3.188;2024-03-17T11:59:32;100937.00;;;10.79;100.00
60817;BME280;51921;51.518;-3.188;2024-03-17T12:01:57;100937.59;;;10.39;100.00
60817;BME280;51921;51.518;-3.188;2024-03-17T12:04:24;100936.99;;;9.85;100.00
60817;BME280;51921;51.518;-3.188;2024-03-17T12:06:49;100938.60;;;9.93;100.00
60817;BME280;51921;51.518;-3.188;2024-03-17T12:09:19;100936.89;;;10.57;100.00
60817;BME280;51921;51.518;-3.188;2024-03-17T12:11:39;100938.45;;;9.90;100.00
60817;BME280;51921;51.518;-3.188;2024-03-17T12:14:16;100952.57;;;9.22;100.00
60817;BME280;51921;51.518;-3.188;2024-03-17T12:16:30;100953.36;;;9.61;100.00
60817;BME280;51921;51.518;-3.188;2024-03-17T12:21:20;100947.33;;;9.93;100.00
60817;BME280;51921;51.518;-3.188;2024-03-17T12:23:46;100943.64;;;9.67;100.00
60817;BME280;51921;51.518;-3.188;2024-03-17T12:26:15;100953.79;;;9.71;100.00
60817;BME280;51921;51.518;-3.188;2024-03-17T12:28:37;100951.16;;;9.08;100.00
60817;BME280;51921;51.518;-3.188;2024-03-17T12:31:02;100953.50;;;9.05;100.00
60817;BME280;51921;51.518;-3.188;2024-03-17T12:33:28;100949.12;;;9.54;100.00
60817;BME280;51921;51.518;-3.188;2024-03-17T12:35:53;100945.95;;;9.55;100.00